Terminal Aerodrome Forecast
Issued by NWS Jackson, MS

Home | Current Version | Previous Version | Text Only | Print | Product List | Glossary On
Versions: 1 2 3 4 5 6 7 8 9 10 11 12 13 14 15 16 17
000
FTUS44 KMEG 182330
TAFTUP
TAF
KTUP 182330Z 1900/1924 06005KT P6SM OVC035
     FM190200 08005KT P6SM VCSH FEW015 OVC025
     FM190800 13006KT 5SM -SHRA BR SCT004 OVC009
      TEMPO 1910/1914 3SM SHRA BKN004
     FM191500 15008KT 3SM SHRA BR OVC004
     FM192000 16010KT 4SM -SHRA BR VCTS BKN006 OVC010CB=

USA.gov is the U.S. government's official web portal to all federal, state and local government web resources and services.